Time;durP1;ratioP1;P1;durP2;ratioP2;P2;SDS_P1;SDS_P2;PMS_P1;PMS_P2;Temp;Humidity;BMP_temperature;BMP_pressure;BME280_temperature;BME280_humidity;BME280_pressure;Samples;Min_cycle;Max_cycle;Signal;HPM_P1;HPM_P2
2022/11/04 00:01:33;;;;;;;19.45;12.30;;;;;;;;;;5139875;27;20026;-76
2022/11/04 00:04:19;;;;;;;22.35;12.43;;;;;;;;;;5155083;27;20023;-75
2022/11/04 00:08:22;;;;;;;20.05;13.02;;;;;;;;;;5154805;27;20027;-76
2022/11/04 00:10:10;;;;;;;20.42;12.25;;;;;;;;;;5159238;27;20011;-76
2022/11/04 00:12:56;;;;;;;20.30;12.25;;;;;;;;;;5165330;27;20015;-74
2022/11/04 00:18:46;;;;;;;20.85;12.45;;;;;;;;;;5159270;27;20023;-75
2022/11/04 00:30:31;;;;;;;19.15;11.35;;;;;;;;;;5158774;27;20015;-75
2022/11/04 00:33:26;;;;;;;21.55;12.75;;;;;;;;;;5142699;27;20326;-75
2022/11/04 00:36:12;;;;;;;17.88;11.70;;;;;;;;;;5158275;27;20023;-76
2022/11/04 00:38:57;;;;;;;17.58;11.13;;;;;;;;;;5157987;27;20117;-75
2022/11/04 00:41:43;;;;;;;19.52;12.00;;;;;;;;;;5158052;27;20023;-75
2022/11/04 00:44:28;;;;;;;17.73;11.00;;;;;;;;;;5157562;27;20029;-75
2022/11/04 00:47:14;;;;;;;17.83;11.15;;;;;;;;;;5158380;27;20101;-76
2022/11/04 00:49:59;;;;;;;18.55;11.38;;;;;;;;;;5157749;27;20019;-75
2022/11/04 00:52:45;;;;;;;18.92;11.55;;;;;;;;;;5158189;27;20022;-75
2022/11/04 00:55:31;;;;;;;17.15;11.50;;;;;;;;;;5157367;27;20456;-73
2022/11/04 00:58:16;;;;;;;18.75;12.32;;;;;;;;;;5157275;27;20030;-76
2022/11/04 01:01:09;;;;;;;22.30;12.88;;;;;;;;;;5143050;27;20380;-75
2022/11/04 01:03:55;;;;;;;19.88;13.05;;;;;;;;;;5144226;27;20029;-76
2022/11/04 01:06:40;;;;;;;18.20;12.38;;;;;;;;;;5159026;27;20345;-76
2022/11/04 01:09:26;;;;;;;19.63;12.77;;;;;;;;;;5157123;27;20298;-77
2022/11/04 01:12:11;;;;;;;22.60;12.80;;;;;;;;;;5142549;27;20106;-76
2022/11/04 01:14:58;;;;;;;19.08;12.00;;;;;;;;;;5157761;27;20018;-77
2022/11/04 01:17:43;;;;;;;21.67;12.80;;;;;;;;;;5156940;27;20022;-75
2022/11/04 01:20:29;;;;;;;18.95;12.05;;;;;;;;;;5156835;27;20078;-75
2022/11/04 01:23:14;;;;;;;18.58;12.02;;;;;;;;;;5157844;27;20079;-76
2022/11/04 01:26:00;;;;;;;17.10;11.57;;;;;;;;;;5157047;27;20421;-76
2022/11/04 01:28:46;;;;;;;19.20;11.65;;;;;;;;;;5157238;27;20067;-76
2022/11/04 01:31:32;;;;;;;19.48;11.85;;;;;;;;;;5158281;27;20023;-76
2022/11/04 01:34:17;;;;;;;23.35;12.73;;;;;;;;;;5142569;27;20329;-77
2022/11/04 01:37:03;;;;;;;21.10;12.43;;;;;;;;;;5157555;27;20083;-76
2022/11/04 01:39:48;;;;;;;25.50;13.68;;;;;;;;;;5157289;27;20098;-77
2022/11/04 01:42:34;;;;;;;19.42;13.00;;;;;;;;;;5157271;27;20015;-76
2022/11/04 01:45:20;;;;;;;21.33;12.68;;;;;;;;;;5155983;27;20046;-76
2022/11/04 01:48:20;;;;;;;16.00;11.15;;;;;;;;;;5157000;27;20034;-76
2022/11/04 01:51:06;;;;;;;20.92;12.60;;;;;;;;;;5141105;27;20019;-76
2022/11/04 01:53:52;;;;;;;21.15;12.02;;;;;;;;;;5155658;27;20361;-75
2022/11/04 01:56:40;;;;;;;21.52;11.63;;;;;;;;;;5140650;27;20069;-76
2022/11/04 01:59:29;;;;;;;19.67;11.95;;;;;;;;;;5157276;27;20121;-76
2022/11/04 02:02:14;;;;;;;20.73;12.60;;;;;;;;;;5157163;27;20015;-76
2022/11/04 02:05:00;;;;;;;17.55;12.30;;;;;;;;;;5142279;27;20113;-76
2022/11/04 02:07:50;;;;;;;19.67;12.30;;;;;;;;;;5141552;27;20448;-75
2022/11/04 02:10:38;;;;;;;20.15;12.45;;;;;;;;;;5155793;27;20022;-76
2022/11/04 02:13:24;;;;;;;18.77;12.20;;;;;;;;;;5141439;27;20043;-76
2022/11/04 02:16:36;;;;;;;18.27;12.18;;;;;;;;;;5156305;27;20363;-76
2022/11/04 02:19:30;;;;;;;22.73;12.32;;;;;;;;;;5155540;27;20026;-75
2022/11/04 02:22:31;;;;;;;20.58;11.90;;;;;;;;;;5156355;27;20060;-75
2022/11/04 02:25:31;;;;;;;17.33;11.75;;;;;;;;;;5155262;27;20025;-76
2022/11/04 02:28:40;;;;;;;19.38;12.25;;;;;;;;;;5156653;27;20114;-76
2022/11/04 02:31:32;;;;;;;20.23;11.50;;;;;;;;;;5156312;27;20110;-75
2022/11/04 02:34:25;;;;;;;15.55;11.05;;;;;;;;;;5157730;27;20114;-75
2022/11/04 02:37:17;;;;;;;19.52;11.65;;;;;;;;;;5141180;27;20365;-76
2022/11/04 02:40:21;;;;;;;17.08;10.68;;;;;;;;;;5156631;27;20489;-76
2022/11/04 02:43:07;;;;;;;20.95;11.70;;;;;;;;;;5141630;27;20052;-74
2022/11/04 02:46:00;;;;;;;16.83;11.75;;;;;;;;;;5159270;27;20136;-76
2022/11/04 02:49:02;;;;;;;21.63;11.98;;;;;;;;;;5156739;27;20034;-76
2022/11/04 02:51:57;;;;;;;24.48;11.65;;;;;;;;;;5155911;27;20452;-76
2022/11/04 02:54:46;;;;;;;20.10;12.20;;;;;;;;;;5156204;27;20480;-76
2022/11/04 02:57:34;;;;;;;21.27;12.55;;;;;;;;;;5140262;27;20048;-77
2022/11/04 03:00:20;;;;;;;25.67;13.95;;;;;;;;;;5158075;27;20400;-76
2022/11/04 03:03:08;;;;;;;23.25;13.13;;;;;;;;;;5141612;27;20034;-76
2022/11/04 03:05:54;;;;;;;18.75;11.52;;;;;;;;;;5154521;27;20479;-76
2022/11/04 03:08:43;;;;;;;21.27;12.38;;;;;;;;;;5139921;27;20022;-74
2022/11/04 03:11:29;;;;;;;18.45;11.48;;;;;;;;;;5140765;27;20018;-75
2022/11/04 03:14:31;;;;;;;19.55;11.65;;;;;;;;;;5154886;27;20047;-76
2022/11/04 03:17:25;;;;;;;18.08;11.70;;;;;;;;;;5154530;27;20467;-76
2022/11/04 03:20:17;;;;;;;20.05;12.35;;;;;;;;;;5155545;27;20106;-76
2022/11/04 03:23:03;;;;;;;19.73;11.70;;;;;;;;;;5155233;27;20098;-75
2022/11/04 03:25:52;;;;;;;18.58;11.50;;;;;;;;;;5155468;27;20034;-76
2022/11/04 03:28:50;;;;;;;19.65;12.00;;;;;;;;;;5155066;27;20031;-76
2022/11/04 03:31:53;;;;;;;17.30;11.30;;;;;;;;;;5155606;27;20042;-76
2022/11/04 03:34:38;;;;;;;17.08;11.30;;;;;;;;;;5139805;27;20102;-76
2022/11/04 03:37:24;;;;;;;18.77;11.02;;;;;;;;;;5126535;27;20066;-76
2022/11/04 03:40:11;;;;;;;20.10;11.80;;;;;;;;;;5155156;27;20436;-76
2022/11/04 03:42:59;;;;;;;19.02;11.05;;;;;;;;;;5155011;27;20103;-75
2022/11/04 03:45:45;;;;;;;16.80;11.07;;;;;;;;;;5158274;27;20049;-76
2022/11/04 03:48:32;;;;;;;16.33;10.73;;;;;;;;;;5143943;27;20062;-77
2022/11/04 03:51:17;;;;;;;19.33;10.75;;;;;;;;;;5159490;27;20027;-76
2022/11/04 03:54:04;;;;;;;18.05;11.05;;;;;;;;;;5158869;27;20458;-76
2022/11/04 03:57:12;;;;;;;19.40;10.93;;;;;;;;;;5158218;27;20030;-76
2022/11/04 04:00:09;;;;;;;18.77;11.15;;;;;;;;;;5158453;27;20018;-76
2022/11/04 04:02:55;;;;;;;18.60;11.13;;;;;;;;;;5159011;27;20027;-77
2022/11/04 04:05:45;;;;;;;22.85;11.45;;;;;;;;;;5159834;27;20030;-75
2022/11/04 04:08:43;;;;;;;21.90;11.32;;;;;;;;;;5144103;27;20015;-76
2022/11/04 04:11:38;;;;;;;20.60;11.80;;;;;;;;;;5158514;27;20014;-74
2022/11/04 04:14:38;;;;;;;19.65;13.25;;;;;;;;;;5143313;27;20025;-76
2022/11/04 04:17:31;;;;;;;23.08;14.25;;;;;;;;;;5144694;27;20033;-76
2022/11/04 04:20:19;;;;;;;23.38;14.48;;;;;;;;;;5144192;27;20026;-75
2022/11/04 04:29:19;;;;;;;21.30;12.30;;;;;;;;;;5159555;27;20061;-76
2022/11/04 04:32:05;;;;;;;25.00;13.52;;;;;;;;;;5158334;27;20057;-76
2022/11/04 04:35:40;;;;;;;24.15;13.88;;;;;;;;;;5143205;27;20015;-75
2022/11/04 04:44:58;;;;;;;20.80;12.75;;;;;;;;;;5156809;27;20023;-76
2022/11/04 04:47:43;;;;;;;28.67;14.43;;;;;;;;;;5157448;27;20039;-75
2022/11/04 04:50:41;;;;;;;27.05;14.63;;;;;;;;;;5157965;27;20045;-76
2022/11/04 04:53:26;;;;;;;30.85;15.30;;;;;;;;;;5158727;27;20018;-76
2022/11/04 04:56:12;;;;;;;32.30;15.32;;;;;;;;;;5157295;27;20018;-75
2022/11/04 04:58:57;;;;;;;27.92;16.17;;;;;;;;;;5157665;27;20019;-76
2022/11/04 05:01:43;;;;;;;31.13;16.08;;;;;;;;;;5151718;27;20018;-75
2022/11/04 05:04:29;;;;;;;28.70;17.02;;;;;;;;;;5157419;27;20022;-76
2022/11/04 05:07:14;;;;;;;27.92;16.65;;;;;;;;;;5157800;27;20351;-76
2022/11/04 05:10:00;;;;;;;27.42;16.17;;;;;;;;;;5144177;27;20439;-76
2022/11/04 05:15:50;;;;;;;29.58;16.38;;;;;;;;;;5158047;27;20022;-75
2022/11/04 05:18:36;;;;;;;28.05;17.17;;;;;;;;;;5157628;27;20038;-76
2022/11/04 05:21:21;;;;;;;31.15;17.08;;;;;;;;;;5157056;27;20030;-76
2022/11/04 05:24:07;;;;;;;30.42;16.75;;;;;;;;;;5158389;27;20117;-76
2022/11/04 05:26:52;;;;;;;32.03;17.70;;;;;;;;;;5157144;27;20483;-75
2022/11/04 05:29:38;;;;;;;32.75;17.25;;;;;;;;;;5157562;27;20091;-76
2022/11/04 05:32:23;;;;;;;28.70;17.15;;;;;;;;;;5158312;27;20350;-75
2022/11/04 05:35:09;;;;;;;32.83;17.50;;;;;;;;;;5158274;27;20109;-75
2022/11/04 05:37:55;;;;;;;32.50;18.70;;;;;;;;;;5156567;27;20022;-75
2022/11/04 05:40:41;;;;;;;30.10;18.33;;;;;;;;;;5157290;27;20014;-75
2022/11/04 05:43:26;;;;;;;32.05;18.63;;;;;;;;;;5157058;27;20036;-75
2022/11/04 05:46:12;;;;;;;31.80;18.42;;;;;;;;;;5156082;27;20133;-75
2022/11/04 05:48:58;;;;;;;30.25;18.08;;;;;;;;;;5157442;27;20019;-76
2022/11/04 05:51:43;;;;;;;29.15;18.00;;;;;;;;;;5158020;27;20022;-76
2022/11/04 05:54:29;;;;;;;32.10;18.25;;;;;;;;;;5156841;27;20022;-74
2022/11/04 05:57:14;;;;;;;31.92;18.77;;;;;;;;;;5156292;27;20114;-75
2022/11/04 06:00:00;;;;;;;33.20;19.30;;;;;;;;;;5156887;27;20026;-74
2022/11/04 06:02:46;;;;;;;35.75;17.75;;;;;;;;;;5157356;27;20416;-75
2022/11/04 06:05:31;;;;;;;30.98;17.95;;;;;;;;;;5156887;27;20054;-73
2022/11/04 06:08:17;;;;;;;40.60;19.98;;;;;;;;;;5142862;27;20030;-74
2022/11/04 06:11:04;;;;;;;38.53;20.70;;;;;;;;;;5156041;27;20053;-75
2022/11/04 06:13:49;;;;;;;37.33;19.48;;;;;;;;;;5156550;27;20018;-75
2022/11/04 06:16:35;;;;;;;26.95;17.17;;;;;;;;;;5156390;27;20018;-74
2022/11/04 06:19:21;;;;;;;31.02;17.35;;;;;;;;;;5159370;27;20135;-75
2022/11/04 06:22:07;;;;;;;31.58;17.08;;;;;;;;;;5157333;27;20037;-74
2022/11/04 06:24:53;;;;;;;35.78;18.50;;;;;;;;;;5141216;27;20050;-75
2022/11/04 06:27:38;;;;;;;30.15;17.52;;;;;;;;;;5157281;27;20011;-76
2022/11/04 06:30:24;;;;;;;32.60;18.23;;;;;;;;;;5156981;27;20015;-75
2022/11/04 06:33:09;;;;;;;35.45;18.00;;;;;;;;;;5156959;27;20018;-73
2022/11/04 06:35:59;;;;;;;31.40;17.27;;;;;;;;;;5156224;27;20018;-73
2022/11/04 06:38:44;;;;;;;42.30;16.88;;;;;;;;;;5140505;27;20022;-74
2022/11/04 06:41:30;;;;;;;30.85;16.33;;;;;;;;;;5156937;27;20031;-73
2022/11/04 06:44:16;;;;;;;36.25;17.25;;;;;;;;;;5156128;27;20018;-74
2022/11/04 06:47:01;;;;;;;32.45;17.15;;;;;;;;;;5154787;27;20019;-74
2022/11/04 06:49:47;;;;;;;32.97;17.23;;;;;;;;;;5157041;27;20352;-73
2022/11/04 06:52:32;;;;;;;37.00;16.88;;;;;;;;;;5155340;27;20015;-74
2022/11/04 06:55:18;;;;;;;35.50;16.38;;;;;;;;;;5155606;27;20018;-74
2022/11/04 06:58:04;;;;;;;37.08;16.73;;;;;;;;;;5155946;27;20041;-73
2022/11/04 07:00:52;;;;;;;33.38;16.50;;;;;;;;;;5140608;27;20140;-74
2022/11/04 07:03:37;;;;;;;28.73;15.65;;;;;;;;;;5155146;27;20030;-74
2022/11/04 07:06:23;;;;;;;35.05;17.05;;;;;;;;;;5155975;27;20023;-74
2022/11/04 07:09:10;;;;;;;34.15;16.40;;;;;;;;;;5155592;27;20027;-73
2022/11/04 07:11:55;;;;;;;40.08;16.55;;;;;;;;;;5155049;27;20023;-74
2022/11/04 07:14:41;;;;;;;31.67;16.38;;;;;;;;;;5140312;27;20031;-75
2022/11/04 07:17:26;;;;;;;43.17;15.88;;;;;;;;;;5156317;27;20015;-74
2022/11/04 07:20:12;;;;;;;31.92;15.45;;;;;;;;;;5159419;27;20082;-74
2022/11/04 07:22:58;;;;;;;30.60;16.88;;;;;;;;;;5160032;27;20029;-75
2022/11/04 07:25:43;;;;;;;33.30;16.63;;;;;;;;;;5159052;27;20122;-74
2022/11/04 07:28:29;;;;;;;32.78;15.52;;;;;;;;;;5159894;27;20023;-74
2022/11/04 07:31:16;;;;;;;31.23;15.10;;;;;;;;;;5158865;27;20014;-74
2022/11/04 07:34:02;;;;;;;33.80;15.95;;;;;;;;;;5158483;27;20027;-74
2022/11/04 07:36:47;;;;;;;29.30;15.10;;;;;;;;;;5145040;27;20082;-73
2022/11/04 07:39:33;;;;;;;28.40;13.88;;;;;;;;;;5158965;27;20025;-73
2022/11/04 07:42:19;;;;;;;29.13;13.73;;;;;;;;;;5144139;27;20101;-73
2022/11/04 07:45:05;;;;;;;26.02;13.43;;;;;;;;;;5158964;27;20134;-73
2022/11/04 07:47:51;;;;;;;27.13;13.02;;;;;;;;;;5158501;27;20109;-74
2022/11/04 07:50:38;;;;;;;29.02;14.38;;;;;;;;;;5159071;27;20018;-74
2022/11/04 07:53:23;;;;;;;28.17;14.57;;;;;;;;;;5159277;27;20042;-73
2022/11/04 07:56:10;;;;;;;28.88;14.82;;;;;;;;;;5159730;27;20037;-74
2022/11/04 07:58:56;;;;;;;22.88;14.18;;;;;;;;;;5160164;27;20034;-75
2022/11/04 08:01:41;;;;;;;22.40;14.45;;;;;;;;;;5164145;27;20026;-73
2022/11/04 08:04:27;;;;;;;24.45;13.75;;;;;;;;;;5160819;27;20023;-78
2022/11/04 08:07:12;;;;;;;26.15;14.20;;;;;;;;;;5158716;27;20029;-75
2022/11/04 08:09:58;;;;;;;24.10;13.70;;;;;;;;;;5159532;27;20079;-74
2022/11/04 08:12:44;;;;;;;24.73;14.35;;;;;;;;;;5160419;27;20432;-74
2022/11/04 08:15:29;;;;;;;31.83;14.93;;;;;;;;;;5159082;27;20035;-73
2022/11/04 08:18:15;;;;;;;23.52;13.90;;;;;;;;;;5157539;27;20023;-75
2022/11/04 08:21:01;;;;;;;28.90;14.88;;;;;;;;;;5158749;27;20027;-74
2022/11/04 08:23:47;;;;;;;29.90;15.25;;;;;;;;;;5157426;27;20030;-74
2022/11/04 08:26:33;;;;;;;29.83;15.20;;;;;;;;;;5159177;27;20440;-74
2022/11/04 08:29:18;;;;;;;28.00;14.65;;;;;;;;;;5159507;27;20057;-73
2022/11/04 08:32:05;;;;;;;36.10;14.85;;;;;;;;;;5158365;27;20398;-75
2022/11/04 08:34:51;;;;;;;27.55;13.77;;;;;;;;;;5142262;27;20053;-74
2022/11/04 08:37:37;;;;;;;29.00;14.20;;;;;;;;;;5143273;27;20390;-75
2022/11/04 08:40:23;;;;;;;30.23;13.57;;;;;;;;;;5159148;27;20022;-73
2022/11/04 08:43:09;;;;;;;23.15;13.32;;;;;;;;;;5157658;27;20030;-76
2022/11/04 08:45:54;;;;;;;32.17;13.40;;;;;;;;;;5143912;27;20084;-74
2022/11/04 08:48:41;;;;;;;19.95;12.43;;;;;;;;;;5158625;27;20022;-74
2022/11/04 08:51:27;;;;;;;27.42;13.15;;;;;;;;;;5144823;27;20113;-73
2022/11/04 08:54:13;;;;;;;38.60;14.43;;;;;;;;;;5159025;27;20019;-74
2022/11/04 08:56:58;;;;;;;25.63;12.48;;;;;;;;;;5158360;27;20062;-75
2022/11/04 08:59:44;;;;;;;22.45;12.48;;;;;;;;;;5158389;27;20455;-74
2022/11/04 09:02:29;;;;;;;36.38;13.00;;;;;;;;;;5159704;27;20041;-75
2022/11/04 09:05:15;;;;;;;24.52;13.02;;;;;;;;;;5159249;27;20344;-74
2022/11/04 09:08:01;;;;;;;21.58;12.35;;;;;;;;;;5157810;27;20015;-74
2022/11/04 09:10:46;;;;;;;56.38;26.00;;;;;;;;;;5158071;27;20025;-74
2022/11/04 09:13:32;;;;;;;26.80;12.73;;;;;;;;;;5157002;27;20083;-74
2022/11/04 09:16:18;;;;;;;26.67;14.38;;;;;;;;;;5158206;27;20015;-74
2022/11/04 09:19:03;;;;;;;24.73;13.05;;;;;;;;;;5157540;27;20033;-75
2022/11/04 09:21:49;;;;;;;24.67;12.50;;;;;;;;;;5157989;27;20124;-76
2022/11/04 09:24:35;;;;;;;26.02;13.68;;;;;;;;;;5157717;27;20029;-74
2022/11/04 09:27:20;;;;;;;24.13;13.25;;;;;;;;;;5157577;27;20058;-74
2022/11/04 09:30:06;;;;;;;29.08;12.48;;;;;;;;;;5157849;27;20491;-76
2022/11/04 09:32:52;;;;;;;24.60;12.18;;;;;;;;;;5144190;27;20034;-74
2022/11/04 09:35:37;;;;;;;21.50;12.15;;;;;;;;;;5143613;27;20085;-74
2022/11/04 09:38:23;;;;;;;22.48;12.40;;;;;;;;;;5157953;27;20041;-74
2022/11/04 09:41:47;;;;;;;21.52;11.93;;;;;;;;;;5157685;27;20027;-74
2022/11/04 09:44:51;;;;;;;20.50;11.68;;;;;;;;;;5074645;28;20040;-75
2022/11/04 09:47:38;;;;;;;25.60;12.88;;;;;;;;;;5074986;28;20362;-74
2022/11/04 09:50:25;;;;;;;19.20;12.60;;;;;;;;;;5156616;27;20037;-74
2022/11/04 09:53:23;;;;;;;21.40;12.13;;;;;;;;;;5156801;27;20026;-74
2022/11/04 09:56:20;;;;;;;19.02;11.55;;;;;;;;;;5155871;27;20030;-74
2022/11/04 09:59:09;;;;;;;18.90;12.73;;;;;;;;;;5156574;27;20129;-75
2022/11/04 10:02:10;;;;;;;22.02;11.95;;;;;;;;;;5156047;27;20444;-73
2022/11/04 10:04:56;;;;;;;23.70;12.15;;;;;;;;;;5156118;27;20030;-74
2022/11/04 10:07:53;;;;;;;18.02;11.98;;;;;;;;;;5156022;27;20069;-74
2022/11/04 10:10:55;;;;;;;18.55;11.43;;;;;;;;;;5156220;27;20347;-74
2022/11/04 10:14:01;;;;;;;23.13;11.60;;;;;;;;;;5155309;27;20022;-74
2022/11/04 10:17:05;;;;;;;16.92;10.80;;;;;;;;;;5140058;27;20019;-75
2022/11/04 10:20:11;;;;;;;15.88;10.60;;;;;;;;;;5141860;27;20043;-74
2022/11/04 10:22:58;;;;;;;21.25;10.60;;;;;;;;;;5141546;27;20091;-75
2022/11/04 10:26:02;;;;;;;15.50;10.75;;;;;;;;;;5154784;27;20040;-71
2022/11/04 10:28:51;;;;;;;22.27;11.73;;;;;;;;;;5155908;27;20033;-74
2022/11/04 10:31:37;;;;;;;24.92;11.57;;;;;;;;;;5156368;27;20014;-73
2022/11/04 10:34:40;;;;;;;15.77;10.32;;;;;;;;;;5154538;27;20109;-72
2022/11/04 10:37:27;;;;;;;15.20;10.27;;;;;;;;;;5154421;27;20101;-73
2022/11/04 10:40:35;;;;;;;18.15;10.05;;;;;;;;;;5155612;27;20086;-74
2022/11/04 10:43:41;;;;;;;19.67;12.00;;;;;;;;;;5155883;27;20030;-72
2022/11/04 10:46:39;;;;;;;19.45;11.60;;;;;;;;;;5154659;27;20046;-72
2022/11/04 10:49:30;;;;;;;15.57;11.02;;;;;;;;;;5155318;27;20019;-73
2022/11/04 10:52:16;;;;;;;15.93;10.80;;;;;;;;;;5155661;27;20056;-73
2022/11/04 10:55:02;;;;;;;17.88;10.98;;;;;;;;;;5154889;27;20033;-73
2022/11/04 10:57:48;;;;;;;20.25;11.35;;;;;;;;;;5154879;27;20018;-74
2022/11/04 11:00:34;;;;;;;21.85;10.82;;;;;;;;;;5154998;27;20516;-73
2022/11/04 11:03:23;;;;;;;19.42;10.90;;;;;;;;;;5155034;27;20527;-73
2022/11/04 11:06:12;;;;;;;17.65;10.80;;;;;;;;;;5156204;27;20122;-72
2022/11/04 11:08:59;;;;;;;21.25;11.57;;;;;;;;;;5155785;27;20470;-73
2022/11/04 11:11:47;;;;;;;15.93;10.13;;;;;;;;;;5155280;27;20424;-74
2022/11/04 11:14:34;;;;;;;15.52;10.30;;;;;;;;;;5140099;27;20011;-75
2022/11/04 11:17:21;;;;;;;18.38;10.30;;;;;;;;;;5154576;27;20019;-76
2022/11/04 11:20:13;;;;;;;21.63;10.20;;;;;;;;;;5154039;27;20018;-76
2022/11/04 11:23:00;;;;;;;18.33;10.80;;;;;;;;;;5154743;27;20093;-76
2022/11/04 11:26:08;;;;;;;18.55;10.13;;;;;;;;;;5154726;27;20042;-78
2022/11/04 11:29:15;;;;;;;16.90;9.85;;;;;;;;;;5128248;27;20050;-77
2022/11/04 11:32:24;;;;;;;24.75;12.95;;;;;;;;;;5059146;28;20028;-78
2022/11/04 11:35:41;;;;;;;14.43;9.65;;;;;;;;;;5128385;27;20456;-75
2022/11/04 11:38:46;;;;;;;16.92;9.93;;;;;;;;;;5095080;27;20042;-76
2022/11/04 11:41:52;;;;;;;17.08;10.50;;;;;;;;;;5154561;27;20304;-75
2022/11/04 11:44:47;;;;;;;19.75;10.20;;;;;;;;;;5125422;27;20435;-75
2022/11/04 11:47:46;;;;;;;14.40;10.05;;;;;;;;;;5138798;27;20054;-76
2022/11/04 11:50:52;;;;;;;19.02;9.82;;;;;;;;;;5140690;27;20018;-76
2022/11/04 11:54:01;;;;;;;17.02;10.30;;;;;;;;;;5152922;27;20031;-77
2022/11/04 11:57:16;;;;;;;16.92;9.75;;;;;;;;;;5072076;28;20120;-76
2022/11/04 12:00:37;;;;;;;17.45;10.27;;;;;;;;;;5015340;27;20098;-76
2022/11/04 12:03:59;;;;;;;14.13;9.40;;;;;;;;;;5072341;28;20029;-76
2022/11/04 12:07:03;;;;;;;18.25;9.63;;;;;;;;;;5049944;28;20025;-77
2022/11/04 12:10:01;;;;;;;15.90;9.20;;;;;;;;;;5159334;27;20025;-77
2022/11/04 12:12:46;;;;;;;16.70;8.98;;;;;;;;;;5143231;27;20091;-76
2022/11/04 12:15:35;;;;;;;17.83;10.25;;;;;;;;;;5158525;27;20436;-78
2022/11/04 12:18:31;;;;;;;16.25;9.38;;;;;;;;;;5143014;27;20049;-76
2022/11/04 12:21:36;;;;;;;16.90;9.40;;;;;;;;;;5142033;27;20035;-77
2022/11/04 12:24:40;;;;;;;12.98;9.40;;;;;;;;;;5159034;27;20086;-77
2022/11/04 12:27:46;;;;;;;20.58;9.55;;;;;;;;;;5156981;27;20023;-78
2022/11/04 12:30:36;;;;;;;16.80;9.88;;;;;;;;;;5143938;27;20111;-78
2022/11/04 12:33:34;;;;;;;18.35;9.98;;;;;;;;;;5158295;27;20042;-77
2022/11/04 12:36:27;;;;;;;15.65;10.23;;;;;;;;;;5157667;27;20023;-78
2022/11/04 12:39:12;;;;;;;20.10;10.07;;;;;;;;;;5158317;27;20037;-76
2022/11/04 12:42:08;;;;;;;15.35;10.02;;;;;;;;;;5158369;27;20030;-76
2022/11/04 12:45:03;;;;;;;15.43;10.40;;;;;;;;;;5142060;27;20103;-72
2022/11/04 12:47:49;;;;;;;19.45;11.00;;;;;;;;;;5157357;27;20417;-72
2022/11/04 12:50:48;;;;;;;19.77;11.95;;;;;;;;;;5158053;27;20408;-72
2022/11/04 12:53:36;;;;;;;25.40;15.13;;;;;;;;;;5157006;27;20061;-72
2022/11/04 12:56:25;;;;;;;24.85;12.23;;;;;;;;;;5158843;27;20011;-73
2022/11/04 12:59:30;;;;;;;21.35;13.10;;;;;;;;;;5157775;27;20505;-72
2022/11/04 13:02:21;;;;;;;20.10;11.65;;;;;;;;;;5157979;27;20033;-73
2022/11/04 13:05:07;;;;;;;22.23;12.88;;;;;;;;;;5157931;27;20075;-72
2022/11/04 13:08:06;;;;;;;21.10;13.43;;;;;;;;;;5156632;27;20037;-71
2022/11/04 13:10:57;;;;;;;19.42;13.27;;;;;;;;;;5143410;27;20019;-73
2022/11/04 13:13:43;;;;;;;22.83;13.38;;;;;;;;;;5156953;27;20015;-72
2022/11/04 13:16:34;;;;;;;24.13;13.77;;;;;;;;;;5156449;27;20471;-72
2022/11/04 13:19:24;;;;;;;20.23;12.55;;;;;;;;;;5156745;27;20425;-74
2022/11/04 13:22:14;;;;;;;26.27;12.90;;;;;;;;;;5155815;27;20038;-71
2022/11/04 13:25:18;;;;;;;23.55;13.15;;;;;;;;;;5157290;27;20031;-74
2022/11/04 13:28:08;;;;;;;22.17;12.38;;;;;;;;;;5141218;27;20026;-72
2022/11/04 13:31:06;;;;;;;24.45;12.43;;;;;;;;;;5156977;27;20015;-72
2022/11/04 13:33:56;;;;;;;22.85;12.57;;;;;;;;;;5157160;27;20014;-71
2022/11/04 13:37:06;;;;;;;22.58;12.00;;;;;;;;;;5156850;27;20022;-72
2022/11/04 13:39:54;;;;;;;19.75;12.13;;;;;;;;;;5156774;27;20019;-70
2022/11/04 13:42:53;;;;;;;22.77;11.57;;;;;;;;;;5155784;27;20026;-71
2022/11/04 13:45:44;;;;;;;20.17;12.30;;;;;;;;;;5155970;27;20116;-71
2022/11/04 13:48:31;;;;;;;25.35;12.30;;;;;;;;;;5156489;27;20413;-72
2022/11/04 13:51:18;;;;;;;26.48;11.63;;;;;;;;;;5156284;27;20329;-71
2022/11/04 13:54:04;;;;;;;29.92;12.32;;;;;;;;;;5141611;27;20026;-71
2022/11/04 13:56:50;;;;;;;20.60;11.80;;;;;;;;;;5156406;27;20337;-71
2022/11/04 13:59:35;;;;;;;21.75;11.60;;;;;;;;;;5143382;27;20018;-73
2022/11/04 14:02:21;;;;;;;25.88;11.88;;;;;;;;;;5156117;27;20389;-72
2022/11/04 14:05:25;;;;;;;23.90;11.60;;;;;;;;;;5156526;27;20065;-71
2022/11/04 14:08:12;;;;;;;27.50;12.25;;;;;;;;;;5156284;27;20053;-72
2022/11/04 14:11:01;;;;;;;24.08;12.15;;;;;;;;;;5156939;27;20033;-71
2022/11/04 14:13:59;;;;;;;19.15;11.82;;;;;;;;;;5156316;27;20410;-72
2022/11/04 14:16:45;;;;;;;20.23;12.35;;;;;;;;;;5155938;27;20042;-72
2022/11/04 14:19:47;;;;;;;28.83;11.82;;;;;;;;;;5156372;27;20452;-72
2022/11/04 14:22:46;;;;;;;22.92;12.32;;;;;;;;;;5154860;27;20109;-70
2022/11/04 14:25:39;;;;;;;23.45;12.43;;;;;;;;;;5155655;27;20019;-71
2022/11/04 14:28:26;;;;;;;20.27;13.00;;;;;;;;;;5139442;27;20067;-71
2022/11/04 14:31:14;;;;;;;21.50;12.55;;;;;;;;;;5140272;27;20022;-72
2022/11/04 14:34:00;;;;;;;25.42;13.05;;;;;;;;;;5155663;27;20019;-72
2022/11/04 14:36:45;;;;;;;25.23;12.25;;;;;;;;;;5155376;27;20010;-71
2022/11/04 14:39:41;;;;;;;23.38;12.43;;;;;;;;;;5155853;27;20019;-72
2022/11/04 14:42:45;;;;;;;23.65;12.82;;;;;;;;;;5154981;27;20456;-73
2022/11/04 14:45:36;;;;;;;23.58;13.55;;;;;;;;;;5156066;27;20051;-72
2022/11/04 14:48:22;;;;;;;24.73;13.70;;;;;;;;;;5155040;27;20428;-72
2022/11/04 14:51:18;;;;;;;26.70;14.02;;;;;;;;;;5154944;27;20438;-74
2022/11/04 14:54:06;;;;;;;37.25;14.25;;;;;;;;;;5155027;27;20011;-71
2022/11/04 14:57:05;;;;;;;36.20;14.25;;;;;;;;;;5155081;27;20075;-71
2022/11/04 14:59:52;;;;;;;26.00;15.00;;;;;;;;;;5154826;27;20078;-72
2022/11/04 15:02:38;;;;;;;31.65;14.85;;;;;;;;;;5155832;27;20038;-70
2022/11/04 15:05:25;;;;;;;25.77;13.60;;;;;;;;;;5155877;27;20357;-71
2022/11/04 15:08:23;;;;;;;30.35;14.82;;;;;;;;;;5155018;27;20415;-72
2022/11/04 15:11:09;;;;;;;34.13;15.75;;;;;;;;;;5155115;27;20018;-72
2022/11/04 15:13:56;;;;;;;37.90;16.42;;;;;;;;;;5155611;27;20023;-72
2022/11/04 15:16:43;;;;;;;35.25;16.80;;;;;;;;;;5139983;27;20019;-71
2022/11/04 15:19:30;;;;;;;39.95;18.05;;;;;;;;;;5155030;27;20023;-70
2022/11/04 15:22:16;;;;;;;35.55;17.90;;;;;;;;;;5154200;27;20033;-72
2022/11/04 15:25:04;;;;;;;37.38;18.70;;;;;;;;;;5155350;27;20030;-71
2022/11/04 15:27:50;;;;;;;39.17;20.50;;;;;;;;;;5154371;27;20065;-70
2022/11/04 15:30:36;;;;;;;38.30;20.42;;;;;;;;;;5125705;27;20019;-72
2022/11/04 15:33:23;;;;;;;43.10;22.45;;;;;;;;;;5155701;27;20084;-73
2022/11/04 15:36:12;;;;;;;44.25;22.45;;;;;;;;;;5154167;27;20026;-72
2022/11/04 15:38:58;;;;;;;37.53;20.48;;;;;;;;;;5154567;27;20433;-72
2022/11/04 15:44:49;;;;;;;29.10;19.05;;;;;;;;;;5158905;27;20045;-72
2022/11/04 15:47:35;;;;;;;35.92;19.45;;;;;;;;;;5158558;27;20038;-72
2022/11/04 15:50:22;;;;;;;31.40;18.73;;;;;;;;;;5159099;27;20026;-72
2022/11/04 15:53:08;;;;;;;35.55;19.17;;;;;;;;;;5158523;27;20030;-72
2022/11/04 15:55:54;;;;;;;28.52;19.02;;;;;;;;;;5143308;27;20018;-74
2022/11/04 15:58:40;;;;;;;32.38;17.15;;;;;;;;;;5158772;27;20030;-74
2022/11/04 16:01:27;;;;;;;34.47;17.77;;;;;;;;;;5143474;27;20405;-74
2022/11/04 16:04:14;;;;;;;34.75;17.33;;;;;;;;;;5157921;27;20030;-73
2022/11/04 16:07:20;;;;;;;35.47;18.83;;;;;;;;;;5123440;27;20463;-74
2022/11/04 16:10:26;;;;;;;31.10;17.42;;;;;;;;;;5130563;27;20050;-74
2022/11/04 16:13:17;;;;;;;44.63;19.25;;;;;;;;;;5159359;27;20018;-73
2022/11/04 16:16:18;;;;;;;35.65;19.02;;;;;;;;;;5143925;27;20015;-74
2022/11/04 16:19:05;;;;;;;46.97;19.35;;;;;;;;;;5158039;27;20105;-73
2022/11/04 16:21:59;;;;;;;34.53;17.48;;;;;;;;;;5158022;27;20033;-72
2022/11/04 16:24:46;;;;;;;36.20;17.75;;;;;;;;;;5158817;27;20099;-75
2022/11/04 16:27:33;;;;;;;34.22;18.50;;;;;;;;;;5142422;27;20021;-75
2022/11/04 16:30:20;;;;;;;39.88;18.60;;;;;;;;;;5158444;27;20493;-72
2022/11/04 16:33:08;;;;;;;39.15;19.33;;;;;;;;;;5158151;27;20448;-73
2022/11/04 16:35:54;;;;;;;42.85;18.88;;;;;;;;;;5136692;27;20093;-73
2022/11/04 16:38:40;;;;;;;33.53;17.60;;;;;;;;;;5136916;27;20020;-74
2022/11/04 16:41:27;;;;;;;38.67;17.75;;;;;;;;;;5137080;27;20101;-74
2022/11/04 16:44:19;;;;;;;31.35;17.92;;;;;;;;;;5137634;27;20046;-73
2022/11/04 16:47:05;;;;;;;29.17;17.13;;;;;;;;;;5138491;27;20023;-74
2022/11/04 16:49:51;;;;;;;36.60;17.83;;;;;;;;;;5137568;27;20019;-73
2022/11/04 16:52:36;;;;;;;26.52;16.50;;;;;;;;;;5138288;27;20030;-74
2022/11/04 16:55:23;;;;;;;33.03;18.05;;;;;;;;;;5157677;27;20102;-72
2022/11/04 16:58:11;;;;;;;33.83;17.15;;;;;;;;;;5142348;27;20083;-73
2022/11/04 17:00:57;;;;;;;32.58;15.82;;;;;;;;;;5143064;27;20026;-74
2022/11/04 17:03:43;;;;;;;30.70;15.95;;;;;;;;;;5156920;27;20110;-73